createdAt,value
2022-10-14T00:01:27.022Z,32.90
2022-10-14T00:03:56.441Z,32.22
2022-10-14T00:06:30.079Z,32.13
2022-10-14T00:09:01.960Z,31.25
2022-10-14T00:11:33.022Z,34.40
2022-10-14T00:14:04.240Z,32.13
2022-10-14T00:16:36.294Z,33.13
2022-10-14T00:19:05.309Z,33.90
2022-10-14T00:21:36.091Z,34.30
2022-10-14T00:24:04.809Z,37.05
2022-10-14T00:26:35.153Z,38.03
2022-10-14T00:29:06.357Z,40.50
2022-10-14T00:31:35.817Z,39.70
2022-10-14T00:34:04.358Z,42.00
2022-10-14T00:36:35.805Z,43.28
2022-10-14T00:39:04.165Z,44.20
2022-10-14T00:41:36.212Z,45.05
2022-10-14T00:44:08.260Z,45.85
2022-10-14T00:46:39.064Z,44.97
2022-10-14T00:49:12.781Z,46.58
2022-10-14T00:51:46.700Z,46.85
2022-10-14T00:54:17.943Z,51.45
2022-10-14T00:56:49.132Z,52.53
2022-10-14T00:59:17.759Z,54.90
2022-10-14T01:01:46.039Z,53.70
2022-10-14T01:04:14.298Z,51.75
2022-10-14T01:06:54.629Z,51.47
2022-10-14T01:09:32.131Z,49.92
2022-10-14T01:12:28.065Z,51.97
2022-10-14T01:15:10.980Z,49.95
2022-10-14T01:17:52.934Z,49.03
2022-10-14T01:20:44.974Z,49.95
2022-10-14T01:24:02.635Z,51.78
2022-10-14T01:26:53.228Z,51.70
2022-10-14T01:30:10.706Z,52.83
2022-10-14T01:32:51.950Z,52.20
2022-10-14T01:35:32.311Z,49.80
2022-10-14T01:38:04.873Z,52.58
2022-10-14T01:40:37.588Z,51.53
2022-10-14T01:43:06.802Z,51.42
2022-10-14T01:45:38.418Z,53.17
2022-10-14T01:48:07.740Z,52.00
2022-10-14T01:50:38.614Z,53.08
2022-10-14T01:53:11.638Z,54.75
2022-10-14T01:55:45.614Z,54.10
2022-10-14T01:58:16.708Z,61.10
2022-10-14T02:00:47.894Z,59.80
2022-10-14T02:03:16.426Z,60.80
2022-10-14T02:05:50.273Z,62.15
2022-10-14T02:08:29.669Z,62.05
2022-10-14T02:11:08.778Z,61.28
2022-10-14T02:13:54.871Z,62.92
2022-10-14T02:16:37.987Z,59.55
2022-10-14T02:19:20.567Z,59.00
2022-10-14T02:21:55.274Z,58.83
2022-10-14T02:24:31.823Z,60.85
2022-10-14T02:27:07.175Z,60.28
2022-10-14T02:29:37.736Z,57.90
2022-10-14T02:32:08.711Z,57.58
2022-10-14T02:34:39.015Z,55.42
2022-10-14T02:37:11.464Z,56.75
2022-10-14T02:39:45.680Z,55.10
2022-10-14T02:42:14.034Z,54.58
2022-10-14T02:44:54.654Z,56.03
2022-10-14T02:47:25.736Z,55.65
2022-10-14T02:49:54.910Z,56.92
2022-10-14T02:52:25.314Z,53.67
2022-10-14T02:54:54.591Z,56.60
2022-10-14T02:57:23.828Z,57.17
2022-10-14T02:59:52.037Z,55.17
2022-10-14T03:02:20.444Z,54.17
2022-10-14T03:04:50.744Z,56.67
2022-10-14T03:07:19.037Z,55.30
2022-10-14T03:09:50.783Z,54.70
2022-10-14T03:12:19.171Z,56.90
2022-10-14T03:14:47.559Z,57.08
2022-10-14T03:17:18.195Z,57.08
2022-10-14T03:19:47.347Z,55.10
2022-10-14T03:22:18.224Z,56.80
2022-10-14T03:24:46.549Z,58.60
2022-10-14T03:27:27.935Z,60.28
2022-10-14T03:30:02.099Z,59.63
2022-10-14T03:32:30.447Z,56.47
2022-10-14T03:35:18.931Z,61.28
2022-10-14T03:37:53.194Z,59.97
2022-10-14T03:40:23.455Z,60.53
2022-10-14T03:42:52.627Z,62.00
2022-10-14T03:45:22.839Z,61.45
2022-10-14T03:47:51.027Z,61.95
2022-10-14T03:50:19.372Z,63.08
2022-10-14T03:52:55.563Z,64.38
2022-10-14T03:55:33.415Z,62.42
2022-10-14T03:58:02.587Z,60.45
2022-10-14T04:00:32.230Z,60.17
2022-10-14T04:03:15.019Z,58.33
2022-10-14T04:05:45.123Z,58.43
2022-10-14T04:08:19.404Z,59.08
2022-10-14T04:10:54.759Z,59.22
2022-10-14T04:13:24.352Z,59.88
2022-10-14T04:15:52.761Z,57.88
2022-10-14T04:18:25.406Z,56.28
2022-10-14T04:20:56.978Z,56.47
2022-10-14T04:23:27.958Z,58.42
2022-10-14T04:26:05.677Z,55.78
2022-10-14T04:28:35.655Z,55.25
2022-10-14T04:31:11.201Z,54.95
2022-10-14T04:36:26.739Z,54.20
2022-10-14T04:41:26.871Z,53.45
2022-10-14T04:43:57.466Z,52.72
2022-10-14T04:49:06.631Z,51.20
2022-10-14T04:51:40.342Z,49.25
2022-10-14T04:54:20.291Z,48.88
2022-10-14T04:56:56.598Z,46.20
2022-10-14T04:59:24.922Z,45.22
2022-10-14T05:02:22.624Z,46.97
2022-10-14T05:05:00.218Z,43.92
2022-10-14T05:07:31.709Z,40.13
2022-10-14T05:10:12.159Z,38.67
2022-10-14T05:12:43.497Z,35.10
2022-10-14T05:15:12.705Z,33.05
2022-10-14T05:17:54.235Z,29.27
2022-10-14T05:20:29.227Z,26.40
2022-10-14T05:22:59.324Z,24.52
2022-10-14T05:25:29.051Z,25.75
2022-10-14T05:27:57.720Z,24.58
2022-10-14T05:30:30.782Z,24.92
2022-10-14T05:33:02.337Z,25.45
2022-10-14T05:35:57.016Z,25.67
2022-10-14T05:38:20.262Z,28.08
2022-10-14T05:40:55.132Z,27.63
2022-10-14T05:43:30.994Z,28.13
2022-10-14T05:46:01.249Z,30.95
2022-10-14T05:48:32.896Z,30.92
2022-10-14T05:51:03.337Z,30.00
2022-10-14T05:53:33.779Z,29.15
2022-10-14T05:56:10.328Z,31.98
2022-10-14T05:58:40.753Z,30.58
2022-10-14T06:01:11.799Z,29.42
2022-10-14T06:03:42.475Z,29.58
2022-10-14T06:06:15.013Z,32.35
2022-10-14T06:08:44.085Z,30.77
2022-10-14T06:11:14.132Z,35.92
2022-10-14T06:13:42.654Z,37.13
2022-10-14T06:16:11.949Z,36.65
2022-10-14T06:18:40.504Z,39.65
2022-10-14T06:21:14.220Z,42.25
2022-10-14T06:23:42.401Z,44.00
2022-10-14T06:26:10.775Z,44.80
2022-10-14T06:28:40.582Z,43.78
2022-10-14T06:31:08.861Z,45.05
2022-10-14T06:33:37.368Z,44.30
2022-10-14T06:36:07.042Z,44.25
2022-10-14T06:38:35.403Z,43.13
2022-10-14T06:41:03.704Z,44.92
2022-10-14T06:43:31.992Z,44.30
2022-10-14T06:46:02.071Z,43.22
2022-10-14T06:48:30.608Z,42.60
2022-10-14T06:51:01.002Z,40.83
2022-10-14T06:53:29.882Z,40.83
2022-10-14T06:56:03.876Z,39.67
2022-10-14T06:58:33.148Z,38.97
2022-10-14T07:01:05.382Z,38.08
2022-10-14T07:03:38.691Z,37.45
2022-10-14T07:06:09.066Z,36.92
2022-10-14T07:08:37.519Z,35.10
2022-10-14T07:11:06.840Z,37.00
2022-10-14T07:13:35.472Z,37.10
2022-10-14T07:16:05.511Z,38.20
2022-10-14T07:18:33.924Z,36.40
2022-10-14T07:21:04.599Z,37.30
2022-10-14T07:26:02.035Z,38.33
2022-10-14T07:28:30.527Z,38.40
2022-10-14T07:31:06.563Z,36.20
2022-10-14T07:36:09.779Z,35.28
2022-10-14T07:38:38.866Z,36.17
2022-10-14T07:41:16.831Z,36.13
2022-10-14T07:43:45.973Z,36.58
2022-10-14T07:46:18.686Z,39.42
2022-10-14T07:48:56.761Z,37.72
2022-10-14T07:51:26.039Z,36.05
2022-10-14T07:53:55.009Z,34.25
2022-10-14T07:56:23.527Z,34.55
2022-10-14T07:58:52.534Z,34.70
2022-10-14T08:01:24.161Z,34.10
2022-10-14T08:03:53.365Z,32.40
2022-10-14T08:06:22.305Z,29.25
2022-10-14T08:08:50.739Z,27.63
2022-10-14T08:11:22.571Z,26.98
2022-10-14T08:13:51.660Z,25.45
2022-10-14T08:16:24.160Z,26.05
2022-10-14T08:18:53.321Z,24.10
2022-10-14T08:21:22.189Z,24.17
2022-10-14T08:23:50.497Z,22.73
2022-10-14T08:26:23.255Z,23.08
2022-10-14T08:28:52.338Z,20.45
2022-10-14T08:31:22.998Z,20.13
2022-10-14T08:36:21.233Z,18.40
2022-10-14T08:38:51.822Z,17.63
2022-10-14T08:44:12.378Z,15.82
2022-10-14T08:46:51.092Z,17.15
2022-10-14T08:49:28.032Z,16.45
2022-10-14T08:52:02.231Z,18.02
2022-10-14T08:54:38.076Z,19.17
2022-10-14T08:57:07.565Z,19.48
2022-10-14T08:59:42.027Z,20.35
2022-10-14T09:02:25.662Z,21.30
2022-10-14T09:04:53.909Z,20.05
2022-10-14T09:07:22.505Z,19.83
2022-10-14T09:09:55.666Z,19.85
2022-10-14T09:12:29.657Z,20.45
2022-10-14T09:15:13.061Z,19.38
2022-10-14T09:17:49.499Z,18.77
2022-10-14T09:20:23.495Z,18.23
2022-10-14T09:23:07.284Z,18.50
2022-10-14T09:25:37.455Z,18.40
2022-10-14T09:28:06.043Z,18.77
2022-10-14T09:30:40.542Z,16.70
2022-10-14T09:33:18.370Z,18.70
2022-10-14T09:35:46.805Z,17.55
2022-10-14T09:38:15.456Z,18.70
2022-10-14T09:40:46.411Z,18.73
2022-10-14T09:43:21.770Z,17.55
2022-10-14T09:45:54.938Z,17.02
2022-10-14T09:48:34.525Z,15.80
2022-10-14T09:51:06.620Z,15.70
2022-10-14T09:53:41.182Z,16.67
2022-10-14T09:56:11.253Z,17.73
2022-10-14T09:58:45.672Z,18.08
2022-10-14T10:01:19.014Z,18.17
2022-10-14T10:03:51.434Z,19.77
2022-10-14T10:06:25.621Z,18.20
2022-10-14T10:09:00.130Z,17.77
2022-10-14T10:11:31.227Z,18.80
2022-10-14T10:14:16.392Z,18.75
2022-10-14T10:16:46.049Z,17.58
2022-10-14T10:19:31.163Z,18.30
2022-10-14T10:22:21.842Z,17.38
2022-10-14T10:24:52.432Z,16.52
2022-10-14T10:27:25.641Z,16.38
2022-10-14T10:29:55.816Z,16.38
2022-10-14T10:32:30.231Z,15.27
2022-10-14T10:35:15.974Z,15.65
2022-10-14T10:38:00.537Z,16.55
2022-10-14T10:40:33.693Z,19.10
2022-10-14T10:43:19.838Z,20.30
2022-10-14T10:46:05.454Z,18.92
2022-10-14T10:48:44.293Z,19.77
2022-10-14T10:51:18.281Z,19.63
2022-10-14T10:54:07.914Z,18.92
2022-10-14T10:56:43.917Z,19.25
2022-10-14T10:59:37.441Z,19.83
2022-10-14T11:02:56.176Z,20.10
2022-10-14T11:05:44.706Z,19.67
2022-10-14T11:09:05.231Z,19.40
2022-10-14T11:11:54.863Z,19.17
2022-10-14T11:15:03.317Z,19.55
2022-10-14T11:20:27.363Z,16.02
2022-10-14T11:23:34.781Z,18.98
2022-10-14T11:26:15.717Z,17.38
2022-10-14T11:28:53.814Z,16.80
2022-10-14T11:31:35.157Z,15.00
2022-10-14T11:34:29.324Z,14.07
2022-10-14T11:37:08.574Z,13.45
2022-10-14T11:39:50.395Z,12.25
2022-10-14T11:42:34.033Z,12.70
2022-10-14T11:45:49.558Z,10.30
2022-10-14T11:48:31.294Z,11.40
2022-10-14T11:51:08.675Z,11.57
2022-10-14T11:53:48.870Z,11.82
2022-10-14T11:56:32.289Z,11.23
2022-10-14T11:59:10.558Z,10.10
2022-10-14T12:01:45.020Z,11.15
2022-10-14T12:04:22.281Z,10.73
2022-10-14T12:06:58.511Z,10.45
2022-10-14T12:12:14.922Z,8.90
2022-10-14T12:14:48.337Z,9.60
2022-10-14T12:17:24.263Z,8.93
2022-10-14T12:19:53.291Z,9.75
2022-10-14T12:22:26.074Z,8.52
2022-10-14T12:24:56.348Z,7.13
2022-10-14T12:27:28.835Z,4.95
2022-10-14T12:29:58.918Z,5.32
2022-10-14T12:32:30.047Z,4.43
2022-10-14T12:35:02.265Z,4.65
2022-10-14T12:37:52.690Z,4.25
2022-10-14T12:40:27.999Z,4.82
2022-10-14T12:43:21.570Z,5.15
2022-10-14T12:46:04.267Z,4.75
2022-10-14T12:48:35.953Z,4.22
2022-10-14T12:51:15.464Z,4.68
2022-10-14T12:53:54.169Z,5.50
2022-10-14T12:56:36.639Z,5.07
2022-10-14T12:59:09.229Z,4.80
2022-10-14T13:01:39.434Z,5.32
2022-10-14T13:04:20.017Z,5.07
2022-10-14T13:07:47.193Z,5.30
2022-10-14T13:10:48.528Z,6.57
2022-10-14T13:13:52.571Z,5.97
2022-10-14T13:17:01.045Z,6.00
2022-10-14T13:19:47.946Z,6.07
2022-10-14T13:22:44.014Z,6.13
2022-10-14T13:25:18.272Z,5.05
2022-10-14T13:28:14.360Z,4.45
2022-10-14T13:30:56.790Z,4.57
2022-10-14T13:33:35.981Z,4.30
2022-10-14T13:36:14.850Z,4.70
2022-10-14T13:38:47.257Z,5.20
2022-10-14T13:41:28.295Z,5.05
2022-10-14T13:44:01.215Z,3.80
2022-10-14T13:46:35.283Z,3.95
2022-10-14T13:51:53.454Z,4.35
2022-10-14T13:54:24.067Z,4.32
2022-10-14T14:02:44.086Z,5.25
2022-10-14T14:05:19.962Z,3.92
2022-10-14T14:08:30.056Z,4.35
2022-10-14T14:13:29.550Z,3.65
2022-10-14T14:15:58.479Z,3.95
2022-10-14T14:18:49.462Z,3.78
2022-10-14T14:21:28.465Z,4.25
2022-10-14T14:23:59.170Z,3.80
2022-10-14T14:31:48.052Z,3.92
2022-10-14T14:34:20.467Z,4.50
2022-10-14T14:36:55.535Z,3.92
2022-10-14T14:39:32.233Z,4.20
2022-10-14T14:42:02.003Z,4.10
2022-10-14T14:44:34.529Z,4.70
2022-10-14T14:47:04.959Z,4.13
2022-10-14T14:49:38.085Z,4.13
2022-10-14T14:52:08.510Z,4.25
2022-10-14T14:54:46.102Z,4.15
2022-10-14T14:57:19.607Z,4.32
2022-10-14T15:00:00.259Z,4.60
2022-10-14T15:02:29.863Z,4.55
2022-10-14T15:05:02.952Z,3.80
2022-10-14T15:07:33.075Z,4.35
2022-10-14T15:10:03.517Z,3.90
2022-10-14T15:12:34.293Z,4.18
2022-10-14T15:17:34.992Z,4.32
2022-10-14T15:20:29.684Z,5.75
2022-10-14T15:22:59.462Z,7.47
2022-10-14T15:25:32.212Z,8.52
2022-10-14T15:28:01.742Z,6.25
2022-10-14T15:30:34.944Z,8.52
2022-10-14T15:33:14.831Z,6.47
2022-10-14T15:35:44.117Z,8.05
2022-10-14T15:38:19.092Z,8.50
2022-10-14T15:40:49.198Z,11.48
2022-10-14T15:43:24.251Z,8.60
2022-10-14T15:46:13.446Z,6.53
2022-10-14T15:48:47.807Z,5.72
2022-10-14T15:51:20.739Z,7.55
2022-10-14T15:56:20.907Z,6.00
2022-10-14T15:58:49.525Z,5.63
2022-10-14T16:01:21.562Z,5.47
2022-10-14T16:03:51.877Z,5.45
2022-10-14T16:06:22.640Z,4.72
2022-10-14T16:08:52.912Z,4.72
2022-10-14T16:11:25.137Z,4.50
2022-10-14T16:13:53.416Z,5.07
2022-10-14T16:16:28.151Z,5.60
2022-10-14T16:18:56.430Z,5.95
2022-10-14T16:21:24.648Z,6.25
2022-10-14T16:23:54.530Z,6.30
2022-10-14T16:26:22.899Z,5.97
2022-10-14T16:28:51.163Z,7.03
2022-10-14T16:31:21.298Z,6.30
2022-10-14T16:33:54.676Z,6.18
2022-10-14T16:36:24.958Z,5.95
2022-10-14T16:38:54.853Z,6.53
2022-10-14T16:41:23.177Z,6.90
2022-10-14T16:43:51.585Z,5.85
2022-10-14T16:46:19.968Z,5.90
2022-10-14T16:48:49.629Z,6.18
2022-10-14T16:51:17.964Z,6.50
2022-10-14T16:53:48.809Z,6.75
2022-10-14T16:56:38.333Z,7.05
2022-10-14T16:59:08.167Z,7.32
2022-10-14T17:01:36.506Z,7.82
2022-10-14T17:04:07.803Z,8.48
2022-10-14T17:06:36.077Z,7.93
2022-10-14T17:09:04.723Z,7.82
2022-10-14T17:11:35.003Z,8.75
2022-10-14T17:14:03.767Z,9.73
2022-10-14T17:16:32.011Z,9.15
2022-10-14T17:19:00.839Z,9.70
2022-10-14T17:21:29.855Z,9.68
2022-10-14T17:24:02.577Z,9.52
2022-10-14T17:26:33.765Z,9.77
2022-10-14T17:29:02.817Z,11.00
2022-10-14T17:31:31.978Z,10.40
2022-10-14T17:34:00.864Z,11.50
2022-10-14T17:36:30.847Z,10.63
2022-10-14T17:39:00.271Z,9.75
2022-10-14T17:41:30.772Z,10.98
2022-10-14T17:44:02.212Z,10.27
2022-10-14T17:46:32.172Z,11.35
2022-10-14T17:49:03.800Z,11.80
2022-10-14T17:51:33.493Z,12.57
2022-10-14T17:54:04.344Z,13.10
2022-10-14T17:56:35.459Z,12.77
2022-10-14T17:59:07.085Z,13.38
2022-10-14T18:01:43.860Z,13.77
2022-10-14T18:04:24.140Z,14.95
2022-10-14T18:06:52.590Z,14.85
2022-10-14T18:09:21.159Z,14.80
2022-10-14T18:14:40.982Z,15.30
2022-10-14T18:19:40.779Z,15.40
2022-10-14T18:22:11.121Z,15.13
2022-10-14T18:24:39.696Z,16.92
2022-10-14T18:27:08.079Z,15.85
2022-10-14T18:29:36.420Z,15.45
2022-10-14T18:32:07.167Z,15.38
2022-10-14T18:34:35.597Z,16.63
2022-10-14T18:37:03.814Z,16.23
2022-10-14T18:39:32.194Z,15.65
2022-10-14T18:42:00.383Z,15.80
2022-10-14T18:44:28.637Z,16.40
2022-10-14T18:46:56.897Z,16.23
2022-10-14T18:49:26.614Z,17.58
2022-10-14T18:51:55.353Z,16.87
2022-10-14T18:54:25.175Z,17.25
2022-10-14T18:56:54.828Z,17.85
2022-10-14T18:59:24.492Z,18.23
2022-10-14T19:01:53.856Z,18.45
2022-10-14T19:04:26.905Z,17.83
2022-10-14T19:06:55.214Z,18.55
2022-10-14T19:09:28.971Z,18.55
2022-10-14T19:11:58.889Z,19.55
2022-10-14T19:14:28.644Z,18.13
2022-10-14T19:16:57.092Z,20.67
2022-10-14T19:19:26.869Z,20.17
2022-10-14T19:21:56.407Z,20.52
2022-10-14T19:24:24.838Z,20.50
2022-10-14T19:26:54.148Z,21.55
2022-10-14T19:29:22.588Z,20.02
2022-10-14T19:31:54.319Z,20.75
2022-10-14T19:34:26.740Z,20.30
2022-10-14T19:36:59.995Z,22.05
2022-10-14T19:39:28.262Z,21.73
2022-10-14T19:41:56.499Z,21.05
2022-10-14T19:44:24.843Z,22.40
2022-10-14T19:46:53.281Z,21.25
2022-10-14T19:49:21.558Z,22.55
2022-10-14T19:51:49.859Z,22.40
2022-10-14T19:54:19.815Z,23.42
2022-10-14T19:56:48.092Z,22.50
2022-10-14T19:59:16.316Z,22.77
2022-10-14T20:01:44.667Z,21.48
2022-10-14T20:04:13.254Z,22.00
2022-10-14T20:06:42.893Z,21.35
2022-10-14T20:09:14.679Z,20.63
2022-10-14T20:11:44.465Z,22.23
2022-10-14T20:14:14.452Z,21.20
2022-10-14T20:16:42.767Z,21.33
2022-10-14T20:19:11.059Z,21.88
2022-10-14T20:21:39.337Z,20.80
2022-10-14T20:24:07.982Z,20.25
2022-10-14T20:26:37.561Z,20.27
2022-10-14T20:29:07.751Z,20.08
2022-10-14T20:31:36.043Z,19.35
2022-10-14T20:34:08.656Z,19.10
2022-10-14T20:36:39.654Z,18.30
2022-10-14T20:39:07.865Z,18.58
2022-10-14T20:41:36.241Z,18.73
2022-10-14T20:44:05.948Z,18.20
2022-10-14T20:46:34.286Z,17.03
2022-10-14T20:49:02.548Z,18.15
2022-10-14T20:51:30.879Z,17.77
2022-10-14T20:54:03.985Z,16.85
2022-10-14T20:56:35.424Z,17.30
2022-10-14T20:59:07.830Z,16.65
2022-10-14T21:01:38.160Z,16.88
2022-10-14T21:04:08.709Z,17.25
2022-10-14T21:06:38.769Z,17.20
2022-10-14T21:09:07.408Z,18.02
2022-10-14T21:11:35.778Z,18.10
2022-10-14T21:14:05.923Z,17.50
2022-10-14T21:16:36.846Z,17.48
2022-10-14T21:19:07.581Z,16.45
2022-10-14T21:24:08.184Z,16.98
2022-10-14T21:26:36.586Z,16.20
2022-10-14T21:29:06.914Z,15.60
2022-10-14T21:31:35.234Z,15.00
2022-10-14T21:34:06.588Z,15.45
2022-10-14T21:36:36.116Z,16.15
2022-10-14T21:39:07.648Z,17.10
2022-10-14T21:41:36.123Z,16.90
2022-10-14T21:44:06.997Z,17.80
2022-10-14T21:46:36.342Z,20.08
2022-10-14T21:49:05.056Z,19.83
2022-10-14T21:51:34.205Z,21.50
2022-10-14T21:54:02.530Z,21.25
2022-10-14T21:56:31.129Z,20.55
2022-10-14T21:58:59.925Z,22.40
2022-10-14T22:01:30.809Z,20.50
2022-10-14T22:04:01.396Z,23.92
2022-10-14T22:06:29.872Z,23.67
2022-10-14T22:09:01.521Z,24.52
2022-10-14T22:11:32.989Z,24.35
2022-10-14T22:14:05.779Z,24.52
2022-10-14T22:16:36.696Z,25.70
2022-10-14T22:19:07.254Z,23.90
2022-10-14T22:21:37.877Z,23.98
2022-10-14T22:26:42.085Z,24.50
2022-10-14T22:29:14.310Z,25.35
2022-10-14T22:31:44.690Z,26.05
2022-10-14T22:34:16.270Z,27.30
2022-10-14T22:36:44.806Z,25.65
2022-10-14T22:39:15.604Z,26.10
2022-10-14T22:41:44.077Z,26.35
2022-10-14T22:44:12.676Z,27.00
2022-10-14T22:46:42.945Z,26.35
2022-10-14T22:49:11.240Z,26.40
2022-10-14T22:51:41.345Z,25.98
2022-10-14T22:54:10.681Z,26.42
2022-10-14T22:56:39.702Z,25.40
2022-10-14T22:59:10.865Z,25.65
2022-10-14T23:01:40.077Z,25.90
2022-10-14T23:04:10.952Z,25.08
2022-10-14T23:06:43.643Z,24.45
2022-10-14T23:09:11.980Z,25.02
2022-10-14T23:11:40.498Z,25.13
2022-10-14T23:14:08.969Z,25.23
2022-10-14T23:16:37.654Z,24.10
2022-10-14T23:19:06.070Z,24.30
2022-10-14T23:21:38.224Z,24.17
2022-10-14T23:24:10.964Z,24.40
2022-10-14T23:26:39.568Z,24.45
2022-10-14T23:29:11.410Z,24.25
2022-10-14T23:31:41.199Z,24.33
2022-10-14T23:34:13.244Z,26.20
2022-10-14T23:36:43.524Z,26.48
2022-10-14T23:39:12.078Z,25.33
2022-10-14T23:41:40.564Z,25.40
2022-10-14T23:44:08.921Z,24.90
2022-10-14T23:46:37.142Z,24.77
2022-10-14T23:49:24.983Z,24.55
2022-10-14T23:51:55.275Z,25.55
2022-10-14T23:54:23.762Z,23.85
2022-10-14T23:56:52.196Z,24.60
2022-10-14T23:59:20.373Z,25.40
